Split Airport, Croatia

9:45 PM CET on March 06, 2015 (GMT +0100)
Kastela | Change Station
CLOSE
Current Station
Personal Weather Station
Location: Kastel Gomilica, DALMACIJA
Elevation: 203 ft
Nearby Weather Stations

Elev 203 ft 43.55 °N, 16.40 °E | Updated 5 minutes ago

Clear
Clear
46.8 °F
Feels Like 39 °F
N
21.0
Wind Variable Wind from NNE
Gusts 49.0 mph

Today
High -- | Low -- °F
--% Chance of Precip.
Yesterday
High -- | Low -- °F
Precip. -- in
6:23 AM 5:49 PM
Full, 99% visible
Pressure 30.24 in
Visibility -9999.0 miles
Clouds
Windchill 39 °F
Dew Point 22 °F
Humidity 38%
Rainfall in
Snow Depth Not available.
UV Not available.
Pollen Not available.
Air Quality Not available.
Flu Activity Not available.
METAR LDSP 062030Z 03032G46KT 350V070 CAVOK 08/M06 Q1024 WS ALL RWY NOSIG

More Conditions Fewer Conditions

Pressure 30.24 in
Visibility -9999.0 miles
Clouds
Windchill 39 °F
Dew Point 22 °F
Humidity 38%
Rainfall in
Snow Depth Not available.
UV Not available.
Pollen Not available.
Air Quality Not available.
Flu Activity Not available.
METAR LDSP 062030Z 03032G46KT 350V070 CAVOK 08/M06 Q1024 WS ALL RWY NOSIG

More Conditions Fewer Conditions

10-Day Weather Forecast

Almanac

Astronomy

Mar. 06, 2015 Rise Set
Actual Time
Civil Twilight
Nautical Twilight
Astronomical Twilight
Moon
Length of Visible Light
Length of Day
Tomorrow will be .
, % of the Moon is Illuminated

Today's Extremes

Country Highs Country Lows

Community

WunderPhotos

Upload Photos

1,803,389 photos uploaded!

WunderBlogs® & News

Nearby

Air Quality

  Air Quality AQ Index Pollutant
Not available.

Snow Depth

Station Depth Elevation

Earthquake Activity

City Distance Mag. Time & Date
Minimum magnitude displayed is 2.5.

Coastal Water Temperatures

Place Temperature

Nearby Weather Stations